createdAt,value
2019-04-07T00:00:39.392Z,82.50
2019-04-07T00:03:09.042Z,82.10
2019-04-07T00:05:38.908Z,81.90
2019-04-07T00:08:08.597Z,81.30
2019-04-07T00:10:38.231Z,81.60
2019-04-07T00:13:07.832Z,81.60
2019-04-07T00:15:37.764Z,82.20
2019-04-07T00:18:07.800Z,82.10
2019-04-07T00:20:37.521Z,83.30
2019-04-07T00:23:07.169Z,84.60
2019-04-07T00:25:36.713Z,84.60
2019-04-07T00:28:06.289Z,84.90
2019-04-07T00:30:36.174Z,85.20
2019-04-07T00:33:06.324Z,84.80
2019-04-07T00:35:36.407Z,85.00
2019-04-07T00:38:06.104Z,84.60
2019-04-07T00:40:36.044Z,84.30
2019-04-07T00:43:05.720Z,83.90
2019-04-07T00:45:35.401Z,83.80
2019-04-07T00:48:05.727Z,84.10
2019-04-07T00:50:35.809Z,84.00
2019-04-07T00:53:05.665Z,84.40
2019-04-07T00:55:35.308Z,84.40
2019-04-07T00:58:04.842Z,84.90
2019-04-07T01:00:35.705Z,85.00
2019-04-07T01:03:05.399Z,85.00
2019-04-07T01:05:38.611Z,85.90
2019-04-07T01:08:07.217Z,85.40
2019-04-07T01:10:38.052Z,85.90
2019-04-07T01:13:07.744Z,86.40
2019-04-07T01:15:37.330Z,86.30
2019-04-07T01:18:06.868Z,86.80
2019-04-07T01:20:36.487Z,87.10
2019-04-07T01:23:06.012Z,86.80
2019-04-07T01:25:35.750Z,87.30
2019-04-07T01:28:05.457Z,86.90
2019-04-07T01:30:35.495Z,87.60
2019-04-07T01:33:05.377Z,87.30
2019-04-07T01:35:44.924Z,87.30
2019-04-07T01:38:06.344Z,87.70
2019-04-07T01:40:36.433Z,87.60
2019-04-07T01:43:28.079Z,87.80
2019-04-07T01:46:14.236Z,87.80
2019-04-07T01:48:55.968Z,87.80
2019-04-07T01:51:45.777Z,87.70
2019-04-07T01:54:47.261Z,87.70
2019-04-07T01:57:24.918Z,88.00
2019-04-07T02:00:12.653Z,88.00
2019-04-07T02:02:57.724Z,88.20
2019-04-07T02:05:56.258Z,88.30
2019-04-07T02:08:36.256Z,88.10
2019-04-07T02:11:27.583Z,88.20
2019-04-07T02:14:21.360Z,88.00
2019-04-07T02:17:00.843Z,88.40
2019-04-07T02:19:37.064Z,88.50
2019-04-07T02:22:23.930Z,89.00
2019-04-07T02:24:59.844Z,88.50
2019-04-07T02:27:38.354Z,88.40
2019-04-07T02:30:22.500Z,88.80
2019-04-07T02:33:18.121Z,89.40
2019-04-07T02:36:12.142Z,89.10
2019-04-07T02:38:42.370Z,89.10
2019-04-07T02:41:19.955Z,89.20
2019-04-07T02:44:13.574Z,89.70
2019-04-07T02:46:53.376Z,89.40
2019-04-07T02:49:48.658Z,89.50
2019-04-07T02:52:43.249Z,89.50
2019-04-07T02:55:22.331Z,90.00
2019-04-07T02:57:59.618Z,90.10
2019-04-07T03:00:44.434Z,90.00
2019-04-07T03:03:23.459Z,90.10
2019-04-07T03:06:14.609Z,90.20
2019-04-07T03:08:57.158Z,90.40
2019-04-07T03:11:39.305Z,90.40
2019-04-07T03:14:25.032Z,90.40
2019-04-07T03:17:12.200Z,90.10
2019-04-07T03:19:56.235Z,90.20
2019-04-07T03:22:41.873Z,90.60
2019-04-07T03:25:29.403Z,90.30
2019-04-07T03:28:05.413Z,90.30
2019-04-07T03:30:44.897Z,90.50
2019-04-07T03:33:40.192Z,90.20
2019-04-07T03:36:25.727Z,90.50
2019-04-07T03:39:03.446Z,90.50
2019-04-07T03:41:41.676Z,90.60
2019-04-07T03:44:16.409Z,90.70
2019-04-07T03:47:05.117Z,90.70
2019-04-07T03:49:46.492Z,91.00
2019-04-07T03:52:50.988Z,91.00
2019-04-07T03:55:38.504Z,90.80
2019-04-07T03:58:34.045Z,91.00
2019-04-07T04:01:33.915Z,91.10
2019-04-07T04:04:27.527Z,91.10
2019-04-07T04:07:30.731Z,91.20
2019-04-07T04:09:58.092Z,90.90
2019-04-07T04:12:35.711Z,91.00
2019-04-07T04:15:27.817Z,91.10
2019-04-07T04:17:57.417Z,91.40
2019-04-07T04:20:26.993Z,91.30
2019-04-07T04:22:57.191Z,91.50
2019-04-07T04:25:27.460Z,91.40
2019-04-07T04:27:57.074Z,91.40
2019-04-07T04:30:27.651Z,91.60
2019-04-07T04:32:57.393Z,91.60
2019-04-07T04:35:26.906Z,91.60
2019-04-07T04:37:56.860Z,91.70
2019-04-07T04:40:26.496Z,92.10
2019-04-07T04:42:56.828Z,92.00
2019-04-07T04:45:27.510Z,91.80
2019-04-07T04:47:57.208Z,91.90
2019-04-07T04:50:27.455Z,91.80
2019-04-07T04:52:57.083Z,91.70
2019-04-07T04:55:26.664Z,92.10
2019-04-07T04:57:56.608Z,91.90
2019-04-07T05:00:26.666Z,92.00
2019-04-07T05:02:57.277Z,92.00
2019-04-07T05:05:26.863Z,91.80
2019-04-07T05:08:02.743Z,92.20
2019-04-07T05:10:27.676Z,92.20
2019-04-07T05:12:57.372Z,92.20
2019-04-07T05:15:27.631Z,92.20
2019-04-07T05:17:57.313Z,92.00
2019-04-07T05:20:26.915Z,91.80
2019-04-07T05:22:56.448Z,91.70
2019-04-07T05:25:25.975Z,91.80
2019-04-07T05:27:55.847Z,91.60
2019-04-07T05:30:25.987Z,92.00
2019-04-07T05:32:55.595Z,91.70
2019-04-07T05:35:25.196Z,91.80
2019-04-07T05:38:02.654Z,91.60
2019-04-07T05:40:26.543Z,92.00
2019-04-07T05:42:56.349Z,91.60
2019-04-07T05:45:25.880Z,91.70
2019-04-07T05:47:55.473Z,91.50
2019-04-07T05:50:27.481Z,91.70
2019-04-07T05:52:57.558Z,91.80
2019-04-07T05:55:28.134Z,91.40
2019-04-07T05:57:58.644Z,91.60
2019-04-07T06:00:28.582Z,91.60
2019-04-07T06:02:58.300Z,91.50
2019-04-07T06:05:28.141Z,91.40
2019-04-07T06:08:02.647Z,91.20
2019-04-07T06:10:29.810Z,90.90
2019-04-07T06:13:00.536Z,90.80
2019-04-07T06:15:30.289Z,90.70
2019-04-07T06:18:01.465Z,90.40
2019-04-07T06:20:31.353Z,91.00
2019-04-07T06:34:12.133Z,90.00
2019-04-07T06:36:42.070Z,90.00
2019-04-07T06:39:13.533Z,89.90
2019-04-07T06:41:43.501Z,89.00
2019-04-07T06:44:18.428Z,89.20
2019-04-07T06:47:03.875Z,89.20
2019-04-07T06:50:07.604Z,88.10
2019-04-07T06:52:59.602Z,88.60
2019-04-07T06:55:46.864Z,87.70
2019-04-07T06:58:22.860Z,87.50
2019-04-07T07:01:14.387Z,87.60
2019-04-07T07:04:08.635Z,87.80
2019-04-07T07:06:48.287Z,86.80
2019-04-07T07:09:33.323Z,87.60
2019-04-07T07:12:22.469Z,87.60
2019-04-07T07:15:12.802Z,86.70
2019-04-07T07:17:51.911Z,85.70
2019-04-07T07:20:58.046Z,85.40
2019-04-07T07:23:39.749Z,86.60
2019-04-07T07:26:09.830Z,83.70
2019-04-07T07:28:42.951Z,84.60
2019-04-07T07:31:10.690Z,83.80
2019-04-07T07:33:42.391Z,82.50
2019-04-07T07:36:11.484Z,82.50
2019-04-07T07:38:41.704Z,82.80
2019-04-07T07:41:12.446Z,82.00
2019-04-07T07:43:42.433Z,81.40
2019-04-07T07:46:12.042Z,81.30
2019-04-07T07:48:42.079Z,81.70
2019-04-07T07:51:13.291Z,80.00
2019-04-07T07:53:43.017Z,80.80
2019-04-07T07:56:13.583Z,81.00
2019-04-07T07:58:43.993Z,79.30
2019-04-07T08:01:14.870Z,78.90
2019-04-07T08:03:44.769Z,76.30
2019-04-07T08:06:15.033Z,76.30
2019-04-07T08:08:46.220Z,77.20
2019-04-07T08:11:17.580Z,77.40
2019-04-07T08:13:47.265Z,76.70
2019-04-07T08:16:17.402Z,76.50
2019-04-07T08:18:47.415Z,75.20
2019-04-07T08:21:19.036Z,74.30
2019-04-07T08:23:49.095Z,73.90
2019-04-07T08:26:19.388Z,72.90
2019-04-07T08:28:49.338Z,73.60
2019-04-07T08:31:21.436Z,74.40
2019-04-07T08:33:51.539Z,70.20
2019-04-07T08:36:21.582Z,74.00
2019-04-07T08:38:53.826Z,72.60
2019-04-07T08:41:22.409Z,71.20
2019-04-07T08:43:55.181Z,71.70
2019-04-07T08:46:25.155Z,69.00
2019-04-07T08:49:01.782Z,69.00
2019-04-07T08:51:32.451Z,69.70
2019-04-07T08:54:04.588Z,70.30
2019-04-07T08:56:34.332Z,66.60
2019-04-07T08:59:03.970Z,66.10
2019-04-07T09:01:33.541Z,69.30
2019-04-07T09:04:03.115Z,66.60
2019-04-07T09:06:33.167Z,66.60
2019-04-07T09:09:05.909Z,66.80
2019-04-07T09:11:34.636Z,62.90
2019-04-07T09:14:05.969Z,65.20
2019-04-07T09:17:10.485Z,62.10
2019-04-07T09:19:59.550Z,61.60
2019-04-07T09:22:35.009Z,64.60
2019-04-07T09:25:14.719Z,60.10
2019-04-07T09:28:10.054Z,61.90
2019-04-07T09:31:06.259Z,57.60
2019-04-07T09:33:48.156Z,60.00
2019-04-07T09:36:50.373Z,58.50
2019-04-07T09:39:53.415Z,60.00
2019-04-07T09:42:25.688Z,58.90
2019-04-07T09:45:13.796Z,59.00
2019-04-07T09:48:04.096Z,57.40
2019-04-07T09:51:06.394Z,55.10
2019-04-07T09:53:52.298Z,62.00
2019-04-07T09:56:44.047Z,60.70
2019-04-07T09:59:25.320Z,58.20
2019-04-07T10:02:01.490Z,55.10
2019-04-07T10:04:43.015Z,55.60
2019-04-07T10:07:25.831Z,55.30
2019-04-07T10:10:10.790Z,53.90
2019-04-07T10:12:55.438Z,55.30
2019-04-07T10:15:44.330Z,53.40
2019-04-07T10:18:34.993Z,53.80
2019-04-07T10:21:33.008Z,55.20
2019-04-07T10:24:09.097Z,52.40
2019-04-07T10:27:06.989Z,51.90
2019-04-07T10:29:52.435Z,54.30
2019-04-07T10:32:31.919Z,51.70
2019-04-07T10:35:21.374Z,55.10
2019-04-07T10:38:08.816Z,53.80
2019-04-07T10:40:54.486Z,54.00
2019-04-07T10:43:43.404Z,52.00
2019-04-07T10:46:21.552Z,54.60
2019-04-07T10:49:07.276Z,51.00
2019-04-07T10:51:55.294Z,52.00
2019-04-07T10:54:44.763Z,50.40
2019-04-07T10:57:22.175Z,48.80
2019-04-07T11:00:09.502Z,49.10
2019-04-07T11:02:57.197Z,47.20
2019-04-07T11:05:39.585Z,50.00
2019-04-07T11:08:31.038Z,48.60
2019-04-07T11:11:26.731Z,47.50
2019-04-07T11:14:21.779Z,48.60
2019-04-07T11:17:10.553Z,47.40
2019-04-07T11:19:45.949Z,46.60
2019-04-07T11:22:36.024Z,51.00
2019-04-07T11:25:11.963Z,46.70
2019-04-07T11:28:01.388Z,49.80
2019-04-07T11:30:39.860Z,47.30
2019-04-07T11:33:16.479Z,46.10
2019-04-07T11:36:18.008Z,46.90
2019-04-07T11:39:07.004Z,49.60
2019-04-07T11:41:47.265Z,43.60
2019-04-07T11:44:36.020Z,44.10
2019-04-07T11:47:11.619Z,41.70
2019-04-07T11:50:06.366Z,40.40
2019-04-07T11:52:43.212Z,43.60
2019-04-07T11:55:26.220Z,43.60
2019-04-07T11:58:19.949Z,44.60
2019-04-07T12:00:57.043Z,40.30
2019-04-07T12:03:48.931Z,42.40
2019-04-07T12:06:53.676Z,43.10
2019-04-07T12:09:41.236Z,44.00
2019-04-07T12:12:24.601Z,43.70
2019-04-07T12:15:02.214Z,39.30
2019-04-07T12:17:43.509Z,41.40
2019-04-07T12:20:50.748Z,39.40
2019-04-07T12:23:33.740Z,41.60
2019-04-07T12:26:20.745Z,41.40
2019-04-07T12:29:08.012Z,38.90
2019-04-07T12:31:54.031Z,39.80
2019-04-07T12:34:30.389Z,36.70
2019-04-07T12:37:15.619Z,38.20
2019-04-07T12:40:09.196Z,38.00
2019-04-07T12:42:53.481Z,35.30
2019-04-07T12:45:41.683Z,35.80
2019-04-07T12:48:21.796Z,36.40
2019-04-07T12:51:09.977Z,35.30
2019-04-07T12:53:56.492Z,33.80
2019-04-07T12:56:48.885Z,35.70
2019-04-07T12:59:37.522Z,33.50
2019-04-07T13:02:21.410Z,34.20
2019-04-07T13:05:12.114Z,37.80
2019-04-07T13:08:01.586Z,34.90
2019-04-07T13:10:51.173Z,33.60
2019-04-07T13:13:35.213Z,35.50
2019-04-07T13:16:33.805Z,37.20
2019-04-07T13:19:21.376Z,36.40
2019-04-07T13:22:18.337Z,34.30
2019-04-07T13:24:58.196Z,36.50
2019-04-07T13:27:48.897Z,30.10
2019-04-07T13:30:42.212Z,31.40
2019-04-07T13:33:20.535Z,33.50
2019-04-07T13:36:00.625Z,36.50
2019-04-07T13:38:37.243Z,38.80
2019-04-07T13:41:39.546Z,39.00
2019-04-07T13:44:21.819Z,37.20
2019-04-07T13:47:00.734Z,36.40
2019-04-07T13:49:47.888Z,34.10
2019-04-07T13:52:30.099Z,33.80
2019-04-07T13:55:15.248Z,31.10
2019-04-07T13:57:55.604Z,31.10
2019-04-07T14:00:45.330Z,29.40
2019-04-07T14:03:33.776Z,29.80
2019-04-07T14:06:31.587Z,29.70
2019-04-07T14:09:31.702Z,28.40
2019-04-07T14:12:17.360Z,29.90
2019-04-07T14:15:14.205Z,27.50
2019-04-07T14:18:01.125Z,28.20
2019-04-07T14:20:56.263Z,28.50
2019-04-07T14:23:54.481Z,31.40
2019-04-07T14:26:38.853Z,32.40
2019-04-07T14:29:23.133Z,31.60
2019-04-07T14:32:10.407Z,29.30
2019-04-07T14:34:56.525Z,31.20
2019-04-07T14:37:34.092Z,29.60
2019-04-07T14:40:13.413Z,29.50
2019-04-07T14:43:02.390Z,30.70
2019-04-07T14:45:49.380Z,30.00
2019-04-07T14:48:32.606Z,31.30
2019-04-07T14:51:14.334Z,33.80
2019-04-07T14:54:04.444Z,30.90
2019-04-07T14:56:53.235Z,30.00
2019-04-07T14:59:36.522Z,30.70
2019-04-07T15:02:07.310Z,30.40
2019-04-07T15:04:44.169Z,28.90
2019-04-07T15:07:57.913Z,28.70
2019-04-07T15:11:33.181Z,29.90
2019-04-07T15:15:02.079Z,29.00
2019-04-07T15:21:29.803Z,31.00
2019-04-07T15:24:04.674Z,28.00
2019-04-07T15:26:32.541Z,27.50
2019-04-07T15:29:07.011Z,30.00
2019-04-07T15:31:42.577Z,31.80
2019-04-07T15:34:44.476Z,29.60
2019-04-07T15:37:21.736Z,30.00
2019-04-07T15:40:20.354Z,31.70
2019-04-07T15:43:33.298Z,30.30
2019-04-07T15:47:09.815Z,30.80
2019-04-07T15:53:20.897Z,32.50
2019-04-07T15:55:59.296Z,31.80
2019-04-07T15:58:22.591Z,31.80
2019-04-07T16:00:52.232Z,35.20
2019-04-07T16:03:22.315Z,33.60
2019-04-07T16:05:52.369Z,32.60
2019-04-07T16:08:21.947Z,33.00
2019-04-07T16:10:53.329Z,32.80
2019-04-07T16:13:23.860Z,34.50
2019-04-07T16:15:55.208Z,33.90
2019-04-07T16:18:25.268Z,32.00
2019-04-07T16:20:54.917Z,31.50
2019-04-07T16:24:07.380Z,31.20
2019-04-07T16:29:58.594Z,31.40
2019-04-07T16:40:50.208Z,32.30
2019-04-07T16:44:08.241Z,31.80
2019-04-07T16:53:21.819Z,32.80
2019-04-07T16:56:50.266Z,33.60
2019-04-07T16:59:56.272Z,35.20
2019-04-07T17:03:28.907Z,36.00
2019-04-07T17:05:42.974Z,37.80
2019-04-07T17:08:51.569Z,38.30
2019-04-07T17:12:25.858Z,37.80
2019-04-07T17:16:19.987Z,40.20
2019-04-07T17:19:18.182Z,41.00
2019-04-07T17:22:56.928Z,42.00
2019-04-07T17:26:37.346Z,43.30
2019-04-07T17:30:08.972Z,41.70
2019-04-07T17:33:15.842Z,43.90
2019-04-07T17:36:17.551Z,44.80
2019-04-07T17:47:07.336Z,46.10
2019-04-07T17:49:56.611Z,48.80
2019-04-07T17:53:24.066Z,48.20
2019-04-07T17:56:48.334Z,47.90
2019-04-07T18:00:38.147Z,48.50
2019-04-07T18:07:56.568Z,50.20
2019-04-07T18:11:53.455Z,50.40
2019-04-07T18:23:11.063Z,51.20
2019-04-07T18:27:10.065Z,53.80
2019-04-07T18:30:30.447Z,54.60
2019-04-07T18:33:18.218Z,55.50
2019-04-07T18:35:54.667Z,59.10
2019-04-07T18:38:58.319Z,59.70
2019-04-07T18:41:43.591Z,60.80
2019-04-07T18:44:40.348Z,60.50
2019-04-07T18:47:23.362Z,61.10
2019-04-07T18:50:07.972Z,60.80
2019-04-07T18:52:53.322Z,61.40
2019-04-07T18:55:32.112Z,60.90
2019-04-07T18:58:23.463Z,61.70
2019-04-07T19:01:11.635Z,62.00
2019-04-07T19:04:00.238Z,62.10
2019-04-07T19:06:48.805Z,63.40
2019-04-07T19:09:43.709Z,63.80
2019-04-07T19:12:22.717Z,65.70
2019-04-07T19:15:11.605Z,64.10
2019-04-07T19:18:04.386Z,65.90
2019-04-07T19:20:52.207Z,66.60
2019-04-07T19:23:30.745Z,67.70
2019-04-07T19:26:37.394Z,66.80
2019-04-07T19:29:15.276Z,64.10
2019-04-07T19:31:56.000Z,60.40
2019-04-07T19:34:43.560Z,60.50
2019-04-07T19:37:34.627Z,59.90
2019-04-07T19:40:19.221Z,59.30
2019-04-07T19:42:59.989Z,58.80
2019-04-07T19:45:37.988Z,58.70
2019-04-07T19:48:25.370Z,58.70
2019-04-07T19:51:12.585Z,58.40
2019-04-07T19:53:56.597Z,58.40
2019-04-07T19:56:45.773Z,59.50
2019-04-07T19:59:42.497Z,59.80
2019-04-07T20:02:24.106Z,60.40
2019-04-07T20:05:19.656Z,61.20
2019-04-07T20:08:02.957Z,63.20
2019-04-07T20:10:39.676Z,63.70
2019-04-07T20:13:26.747Z,64.70
2019-04-07T20:16:02.469Z,65.30
2019-04-07T20:18:49.547Z,65.40
2019-04-07T20:21:42.515Z,65.40
2019-04-07T20:24:34.593Z,65.90
2019-04-07T20:27:17.559Z,66.40
2019-04-07T20:30:15.353Z,67.00
2019-04-07T20:32:51.281Z,67.00
2019-04-07T20:35:52.208Z,67.00
2019-04-07T20:38:44.949Z,67.30
2019-04-07T20:41:36.343Z,67.40
2019-04-07T20:44:27.002Z,68.10
2019-04-07T20:47:15.475Z,68.20
2019-04-07T20:49:56.844Z,68.20
2019-04-07T20:52:46.062Z,68.10
2019-04-07T20:55:28.767Z,68.50
2019-04-07T20:58:25.772Z,68.40
2019-04-07T21:01:17.650Z,68.90
2019-04-07T21:04:12.980Z,69.60
2019-04-07T21:07:03.468Z,69.40
2019-04-07T21:09:51.165Z,70.20
2019-04-07T21:12:34.192Z,70.60
2019-04-07T21:15:26.820Z,70.80
2019-04-07T21:18:04.300Z,71.00
2019-04-07T21:20:52.969Z,70.80
2019-04-07T21:23:46.717Z,70.80
2019-04-07T21:26:27.286Z,71.30
2019-04-07T21:29:24.164Z,71.50
2019-04-07T21:32:22.749Z,71.50
2019-04-07T21:35:23.646Z,71.40
2019-04-07T21:38:21.838Z,71.50
2019-04-07T21:41:17.696Z,71.80
2019-04-07T21:44:18.285Z,72.00
2019-04-07T21:47:00.896Z,72.40
2019-04-07T21:49:38.536Z,72.90
2019-04-07T21:52:33.520Z,73.60
2019-04-07T21:55:21.139Z,73.90
2019-04-07T21:58:10.696Z,73.40
2019-04-07T22:00:55.126Z,73.40
2019-04-07T22:03:45.512Z,73.40
2019-04-07T22:06:18.920Z,73.50
2019-04-07T22:08:52.842Z,73.30
2019-04-07T22:11:26.679Z,73.30
2019-04-07T22:13:55.373Z,73.40
2019-04-07T22:16:25.600Z,73.20
2019-04-07T22:18:56.901Z,73.90
2019-04-07T22:21:28.335Z,74.50
2019-04-07T22:23:58.264Z,75.00
2019-04-07T22:26:27.941Z,75.00
2019-04-07T22:29:01.258Z,75.20
2019-04-07T22:31:33.783Z,75.40
2019-04-07T22:34:04.552Z,75.30
2019-04-07T22:36:34.236Z,75.20
2019-04-07T22:39:04.537Z,75.50
2019-04-07T22:41:36.653Z,75.20
2019-04-07T22:44:05.784Z,75.30
2019-04-07T22:46:35.462Z,76.10
2019-04-07T22:49:05.188Z,75.50
2019-04-07T22:51:34.812Z,75.70
2019-04-07T22:54:04.406Z,75.90
2019-04-07T22:56:36.632Z,75.70
2019-04-07T22:59:05.804Z,76.30
2019-04-07T23:01:36.795Z,76.20
2019-04-07T23:04:06.373Z,76.60
2019-04-07T23:06:36.247Z,76.80
2019-04-07T23:09:07.931Z,77.60
2019-04-07T23:11:37.667Z,78.30
2019-04-07T23:14:07.411Z,78.70
2019-04-07T23:16:37.989Z,79.20
2019-04-07T23:19:07.576Z,79.50
2019-04-07T23:21:37.468Z,79.50
2019-04-07T23:24:07.249Z,80.20
2019-04-07T23:26:36.785Z,79.80
2019-04-07T23:29:06.377Z,80.30
2019-04-07T23:31:36.553Z,80.30
2019-04-07T23:34:07.164Z,79.90
2019-04-07T23:36:36.706Z,80.10
2019-04-07T23:39:07.015Z,80.00
2019-04-07T23:41:37.281Z,80.20
2019-04-07T23:44:07.340Z,80.30
2019-04-07T23:46:36.978Z,80.30
2019-04-07T23:49:06.492Z,80.30
2019-04-07T23:51:36.057Z,80.30
2019-04-07T23:54:10.962Z,81.00
2019-04-07T23:56:41.884Z,81.30
2019-04-07T23:59:11.663Z,81.20
